Time;durP1;ratioP1;P1;durP2;ratioP2;P2;SDS_P1;SDS_P2;PMS_P1;PMS_P2;Temp;Humidity;BMP_temperature;BMP_pressure;BME280_temperature;BME280_humidity;BME280_pressure;Samples;Min_cycle;Max_cycle;Signal;HPM_P1;HPM_P2
2021/05/02 00:00:18;;;;;;;7.95;4.65;;;4.30;99.90;;;;;;5092855;28;20165;-41
2021/05/02 00:02:44;;;;;;;10.10;4.70;;;4.30;99.90;;;;;;5093640;28;20539;-40
2021/05/02 00:05:11;;;;;;;9.48;5.18;;;4.30;99.90;;;;;;5094927;28;20204;-41
2021/05/02 00:07:37;;;;;;;13.07;6.05;;;4.20;99.90;;;;;;5092969;28;20196;-41
2021/05/02 00:10:04;;;;;;;9.75;5.72;;;4.20;99.90;;;;;;5092810;28;20166;-41
2021/05/02 00:12:30;;;;;;;9.35;5.35;;;4.20;99.90;;;;;;5094612;28;20181;-41
2021/05/02 00:14:57;;;;;;;8.80;5.47;;;4.10;99.90;;;;;;5093283;28;20177;-41
2021/05/02 00:17:23;;;;;;;10.45;5.78;;;4.10;99.90;;;;;;5094267;28;20564;-41
2021/05/02 00:19:49;;;;;;;11.43;6.05;;;4.10;99.90;;;;;;5092978;28;20566;-41
2021/05/02 00:22:17;;;;;;;11.38;6.20;;;4.10;99.90;;;;;;5093569;28;20181;-40
2021/05/02 00:24:43;;;;;;;12.07;6.13;;;4.10;99.90;;;;;;5094271;28;20209;-40
2021/05/02 00:27:09;;;;;;;12.25;6.40;;;4.10;99.90;;;;;;5094273;28;20180;-40
2021/05/02 00:29:35;;;;;;;16.45;6.75;;;4.00;99.90;;;;;;5094148;28;20201;-40
2021/05/02 00:32:02;;;;;;;14.60;5.85;;;4.00;99.90;;;;;;5093277;28;20621;-40
2021/05/02 00:34:28;;;;;;;12.35;6.70;;;4.00;99.90;;;;;;5092331;28;20221;-40
2021/05/02 00:36:54;;;;;;;17.20;6.70;;;4.00;99.90;;;;;;5093003;28;20270;-41
2021/05/02 00:39:21;;;;;;;13.18;7.15;;;3.90;99.90;;;;;;5093916;28;20169;-41
2021/05/02 00:41:48;;;;;;;16.88;6.80;;;3.90;99.90;;;;;;5093656;28;20172;-41
2021/05/02 00:44:26;;;;;;;13.73;6.60;;;3.90;99.90;;;;;;5093374;28;20653;-41
2021/05/02 00:46:54;;;;;;;12.98;6.38;;;3.80;99.90;;;;;;5076661;28;20161;-41
2021/05/02 00:49:31;;;;;;;20.80;6.55;;;3.80;99.90;;;;;;5092340;28;20169;-41
2021/05/02 00:52:05;;;;;;;12.77;6.32;;;3.80;99.90;;;;;;5093948;28;20176;-41
2021/05/02 00:54:36;;;;;;;22.00;6.18;;;3.80;99.90;;;;;;5093488;28;20189;-41
2021/05/02 00:57:10;;;;;;;12.32;6.20;;;3.70;99.90;;;;;;5091195;28;20169;-41
2021/05/02 01:00:01;;;;;;;17.38;5.93;;;3.70;99.90;;;;;;5091946;28;20157;-41
2021/05/02 01:02:28;;;;;;;24.02;6.57;;;3.70;99.90;;;;;;5093295;28;20178;-41
2021/05/02 01:04:55;;;;;;;10.95;6.93;;;3.60;99.90;;;;;;5093271;28;20216;-41
2021/05/02 01:07:22;;;;;;;12.05;7.53;;;3.60;99.90;;;;;;5092301;28;20185;-41
2021/05/02 01:09:48;;;;;;;10.70;6.82;;;3.60;99.90;;;;;;5093924;28;20184;-41
2021/05/02 01:12:17;;;;;;;12.95;7.00;;;3.60;99.90;;;;;;5093358;28;20606;-41
2021/05/02 01:14:49;;;;;;;11.52;7.00;;;3.60;99.90;;;;;;5092246;28;20540;-41
2021/05/02 01:17:16;;;;;;;10.13;5.97;;;3.50;99.90;;;;;;5092139;28;20165;-41
2021/05/02 01:19:42;;;;;;;13.88;6.25;;;3.50;99.90;;;;;;5093063;28;20196;-46
2021/05/02 01:22:13;;;;;;;11.95;6.10;;;3.50;99.90;;;;;;5092614;28;20173;-40
2021/05/02 01:24:43;;;;;;;10.93;6.53;;;3.40;99.90;;;;;;5092254;28;20216;-41
2021/05/02 01:27:09;;;;;;;10.57;6.15;;;3.40;99.90;;;;;;5092001;28;20182;-40
2021/05/02 01:29:35;;;;;;;12.88;5.80;;;3.30;99.90;;;;;;5091699;28;20209;-40
2021/05/02 01:32:02;;;;;;;8.65;5.90;;;3.30;99.90;;;;;;5092752;28;20669;-40
2021/05/02 01:34:28;;;;;;;8.73;6.00;;;3.30;99.90;;;;;;5092586;28;20233;-40
2021/05/02 01:36:54;;;;;;;13.68;6.50;;;3.20;99.90;;;;;;5091395;28;20645;-40
2021/05/02 01:39:21;;;;;;;15.18;6.57;;;3.20;99.90;;;;;;5089956;28;20197;-40
2021/05/02 01:41:47;;;;;;;13.90;6.85;;;3.20;99.90;;;;;;5075085;28;20526;-40
2021/05/02 01:44:13;;;;;;;10.70;6.72;;;3.20;99.90;;;;;;5092200;28;20219;-40
2021/05/02 01:46:41;;;;;;;13.30;7.32;;;3.20;99.90;;;;;;5092774;28;20181;-39
2021/05/02 01:49:10;;;;;;;12.85;7.10;;;3.10;99.90;;;;;;5092093;28;20186;-40
2021/05/02 01:51:37;;;;;;;11.80;7.20;;;3.10;99.90;;;;;;5091317;28;20173;-39
2021/05/02 01:54:04;;;;;;;10.70;6.40;;;3.00;99.90;;;;;;5092582;28;20181;-40
2021/05/02 01:56:31;;;;;;;12.80;5.90;;;3.00;99.90;;;;;;5090682;28;20173;-41
2021/05/02 01:59:01;;;;;;;10.02;5.55;;;3.00;99.90;;;;;;5091998;28;20184;-41
2021/05/02 02:01:29;;;;;;;7.93;5.22;;;3.00;99.90;;;;;;5092352;28;20192;-40
2021/05/02 02:03:56;;;;;;;9.40;5.22;;;2.90;99.90;;;;;;5091046;28;20208;-40
2021/05/02 02:06:22;;;;;;;13.68;6.20;;;2.90;99.90;;;;;;5090704;28;20176;-41
2021/05/02 02:08:49;;;;;;;10.18;5.65;;;2.90;99.90;;;;;;5092173;28;20181;-41
2021/05/02 02:11:15;;;;;;;9.52;6.30;;;2.90;99.90;;;;;;5091950;28;20173;-40
2021/05/02 02:13:48;;;;;;;11.38;6.13;;;2.90;99.90;;;;;;5074534;28;20184;-40
2021/05/02 02:16:14;;;;;;;12.35;6.38;;;2.90;99.90;;;;;;5090968;28;20173;-41
2021/05/02 02:18:42;;;;;;;8.88;5.82;;;2.90;99.90;;;;;;5092484;28;20173;-40
2021/05/02 02:21:09;;;;;;;13.48;6.70;;;2.90;99.90;;;;;;5090898;28;20173;-41
2021/05/02 02:23:35;;;;;;;8.82;5.75;;;2.80;99.90;;;;;;5092606;28;20189;-41
2021/05/02 02:26:13;;;;;;;10.25;6.30;;;2.80;99.90;;;;;;5091016;28;20180;-40
2021/05/02 02:28:40;;;;;;;11.73;6.32;;;2.70;99.90;;;;;;5091804;28;20201;-40
2021/05/02 02:31:06;;;;;;;14.27;5.90;;;2.80;99.90;;;;;;5091090;28;20626;-41
2021/05/02 02:33:32;;;;;;;9.98;5.88;;;2.70;99.90;;;;;;5091359;28;20181;-40
2021/05/02 02:35:58;;;;;;;10.68;5.88;;;2.70;99.90;;;;;;5091593;28;20220;-40
2021/05/02 02:38:26;;;;;;;14.30;6.15;;;2.70;99.90;;;;;;5090893;28;20165;-40
2021/05/02 02:40:53;;;;;;;9.82;5.65;;;2.70;99.90;;;;;;5091710;28;20173;-40
2021/05/02 02:43:24;;;;;;;14.77;5.97;;;2.60;99.90;;;;;;5092184;28;20180;-40
2021/05/02 02:45:54;;;;;;;15.32;6.53;;;2.60;99.90;;;;;;5091582;28;20264;-40
2021/05/02 02:48:23;;;;;;;10.05;6.45;;;2.50;99.90;;;;;;5091297;28;20621;-40
2021/05/02 02:50:51;;;;;;;11.13;5.88;;;2.50;99.90;;;;;;5091984;28;20185;-41
2021/05/02 02:53:19;;;;;;;9.40;5.82;;;2.40;99.90;;;;;;5091351;28;20629;-41
2021/05/02 02:55:48;;;;;;;10.52;5.97;;;2.40;99.90;;;;;;5090394;28;20165;-41
2021/05/02 02:58:14;;;;;;;8.70;6.00;;;2.40;99.90;;;;;;5090182;28;20195;-41
2021/05/02 03:00:40;;;;;;;9.07;6.10;;;2.40;99.90;;;;;;5072927;28;20637;-40
2021/05/02 03:03:12;;;;;;;10.32;6.20;;;2.40;99.90;;;;;;5074209;28;20180;-41
2021/05/02 03:05:39;;;;;;;11.02;6.22;;;2.30;99.90;;;;;;5089950;28;20196;-39
2021/05/02 03:08:07;;;;;;;10.95;6.60;;;2.30;99.90;;;;;;5091918;28;20650;-40
2021/05/02 03:10:33;;;;;;;10.30;6.47;;;2.30;99.90;;;;;;5091278;28;20200;-40
2021/05/02 03:12:59;;;;;;;9.20;6.18;;;2.30;99.90;;;;;;5092002;28;20176;-40
2021/05/02 03:15:26;;;;;;;13.05;6.45;;;2.30;99.90;;;;;;5091682;28;20193;-41
2021/05/02 03:18:05;;;;;;;17.08;7.47;;;2.30;99.90;;;;;;5090333;28;20960;-40
2021/05/02 03:20:36;;;;;;;10.88;6.65;;;2.30;99.90;;;;;;5090028;28;20586;-40
2021/05/02 03:23:12;;;;;;;9.15;6.90;;;2.30;99.90;;;;;;5091528;28;20165;-40
2021/05/02 03:25:41;;;;;;;11.80;6.22;;;2.30;99.90;;;;;;5091620;28;20259;-40
2021/05/02 03:28:08;;;;;;;10.13;6.75;;;2.20;99.90;;;;;;5090974;28;20548;-41
2021/05/02 03:30:34;;;;;;;13.45;6.40;;;2.20;99.90;;;;;;5091509;28;20184;-40
2021/05/02 03:33:03;;;;;;;9.40;6.43;;;2.20;99.90;;;;;;5090596;28;20181;-40
2021/05/02 03:35:34;;;;;;;9.20;6.25;;;2.20;99.90;;;;;;5094930;28;20212;-41
2021/05/02 03:38:03;;;;;;;12.52;6.03;;;2.20;99.90;;;;;;5093991;28;20541;-40
2021/05/02 03:40:29;;;;;;;12.25;5.90;;;2.20;99.90;;;;;;5094732;28;20641;-41
2021/05/02 03:42:55;;;;;;;11.05;6.63;;;2.30;99.90;;;;;;5094756;28;20188;-41
2021/05/02 03:45:21;;;;;;;9.48;5.70;;;2.20;99.90;;;;;;5095455;28;20559;-40
2021/05/02 03:47:47;;;;;;;10.57;6.40;;;2.30;99.90;;;;;;5094798;28;20184;-40
2021/05/02 03:50:13;;;;;;;10.43;6.18;;;2.20;99.90;;;;;;5094494;28;20542;-42
2021/05/02 03:52:40;;;;;;;11.90;6.47;;;2.30;99.90;;;;;;5094860;28;20180;-41
2021/05/02 03:55:07;;;;;;;9.23;5.80;;;2.30;99.90;;;;;;5095043;28;20201;-41
2021/05/02 03:57:33;;;;;;;9.05;5.47;;;2.30;99.90;;;;;;5093573;28;20178;-40
2021/05/02 03:59:59;;;;;;;11.90;5.97;;;2.30;99.90;;;;;;5095273;28;20189;-40
2021/05/02 04:02:25;;;;;;;9.95;6.00;;;2.30;99.90;;;;;;5094728;28;20177;-40
2021/05/02 04:04:51;;;;;;;11.40;6.55;;;2.30;99.90;;;;;;5093462;28;20216;-40
2021/05/02 04:07:17;;;;;;;9.20;6.13;;;2.40;99.90;;;;;;5094469;28;20633;-40
2021/05/02 04:09:45;;;;;;;11.02;6.28;;;2.40;99.90;;;;;;5094870;28;20185;-42
2021/05/02 04:12:12;;;;;;;12.93;6.45;;;2.50;99.90;;;;;;5094206;28;20212;-40
2021/05/02 04:14:38;;;;;;;9.95;5.95;;;2.60;99.90;;;;;;5094303;28;20173;-41
2021/05/02 04:17:08;;;;;;;9.38;5.78;;;2.60;99.90;;;;;;5095550;28;20184;-41
2021/05/02 04:19:36;;;;;;;9.88;6.00;;;2.70;99.90;;;;;;5095041;28;20174;-41
2021/05/02 04:22:02;;;;;;;9.75;5.93;;;2.80;99.90;;;;;;5095117;28;20169;-42
2021/05/02 04:24:28;;;;;;;7.07;4.35;;;2.80;99.90;;;;;;5093238;28;20221;-40
2021/05/02 04:26:55;;;;;;;8.05;5.22;;;2.90;99.90;;;;;;5094342;28;20189;-40
2021/05/02 04:29:25;;;;;;;7.75;4.90;;;3.00;99.90;;;;;;5093148;28;20197;-40
2021/05/02 04:31:51;;;;;;;7.10;4.70;;;3.10;99.90;;;;;;5094532;28;20173;-40
2021/05/02 04:34:19;;;;;;;9.80;4.55;;;3.20;99.90;;;;;;5093379;28;20209;-39
2021/05/02 04:36:46;;;;;;;10.02;5.40;;;3.30;99.90;;;;;;5094191;28;20189;-40
2021/05/02 04:39:13;;;;;;;8.95;4.78;;;3.40;99.90;;;;;;5093701;28;20241;-41
2021/05/02 04:41:39;;;;;;;9.98;5.15;;;3.60;99.90;;;;;;5093433;28;20170;-41
2021/05/02 04:44:05;;;;;;;6.75;4.18;;;3.70;99.90;;;;;;5091309;28;20650;-40
2021/05/02 04:46:31;;;;;;;8.88;3.92;;;3.80;99.90;;;;;;5091931;28;20185;-41
2021/05/02 04:48:58;;;;;;;7.32;5.00;;;3.80;99.90;;;;;;5091468;28;20188;-39
2021/05/02 04:51:24;;;;;;;7.88;4.22;;;3.90;99.90;;;;;;5095639;28;20184;-40
2021/05/02 04:53:50;;;;;;;7.30;4.00;;;4.00;99.90;;;;;;5098750;28;20177;-40
2021/05/02 04:56:16;;;;;;;6.15;4.28;;;4.10;99.90;;;;;;5101475;28;20195;-40
2021/05/02 04:58:42;;;;;;;9.80;4.30;;;4.20;99.90;;;;;;5102268;28;20177;-40
2021/05/02 05:01:09;;;;;;;7.57;3.70;;;4.30;99.90;;;;;;5092601;28;20187;-40
2021/05/02 05:03:35;;;;;;;9.93;3.63;;;4.40;99.90;;;;;;5092684;28;20629;-40
2021/05/02 05:06:01;;;;;;;7.40;3.63;;;4.50;99.90;;;;;;5091504;28;20210;-40
2021/05/02 05:08:27;;;;;;;5.95;3.47;;;4.60;99.90;;;;;;5092369;28;20181;-41
2021/05/02 05:10:54;;;;;;;6.70;3.25;;;4.70;99.90;;;;;;5093254;28;20177;-40
2021/05/02 05:13:20;;;;;;;7.60;4.10;;;4.80;99.90;;;;;;5092435;28;20181;-41
2021/05/02 05:15:46;;;;;;;7.80;4.05;;;4.90;99.90;;;;;;5092574;28;20181;-43
2021/05/02 05:18:12;;;;;;;7.05;3.70;;;5.10;99.90;;;;;;5092450;28;20173;-41
2021/05/02 05:20:38;;;;;;;8.48;4.07;;;5.20;99.90;;;;;;5091964;28;20196;-39
2021/05/02 05:23:04;;;;;;;12.07;4.72;;;5.30;99.90;;;;;;5091790;28;20177;-40
2021/05/02 05:25:30;;;;;;;11.23;4.70;;;5.40;99.90;;;;;;5091029;28;20220;-40
2021/05/02 05:27:56;;;;;;;6.85;3.42;;;5.50;99.90;;;;;;5092613;28;20193;-40
2021/05/02 05:30:22;;;;;;;7.40;3.78;;;5.60;99.90;;;;;;5092495;28;20185;-41
2021/05/02 05:32:49;;;;;;;10.32;3.70;;;5.70;99.90;;;;;;5093274;28;20208;-41
2021/05/02 05:35:15;;;;;;;7.60;4.18;;;5.90;99.90;;;;;;5091126;28;20224;-40
2021/05/02 05:37:41;;;;;;;9.95;3.88;;;6.00;99.90;;;;;;5091678;28;20180;-40
2021/05/02 05:40:08;;;;;;;6.55;4.22;;;6.10;99.90;;;;;;5090891;28;20547;-41
2021/05/02 05:42:34;;;;;;;9.57;4.70;;;6.30;99.90;;;;;;5092540;28;20169;-41
2021/05/02 05:45:00;;;;;;;9.80;4.00;;;6.50;99.90;;;;;;5092196;28;20664;-41
2021/05/02 05:47:26;;;;;;;6.20;3.78;;;6.60;99.90;;;;;;5093091;28;20641;-40
2021/05/02 05:49:53;;;;;;;8.57;4.22;;;6.80;99.90;;;;;;5092418;28;20531;-40
2021/05/02 05:52:19;;;;;;;8.38;4.60;;;6.90;99.90;;;;;;5092091;28;20176;-41
2021/05/02 05:54:45;;;;;;;8.02;4.32;;;7.00;99.90;;;;;;5092412;28;20169;-41
2021/05/02 05:57:11;;;;;;;7.82;4.15;;;7.20;99.90;;;;;;5091761;28;20169;-41
2021/05/02 05:59:38;;;;;;;7.60;4.15;;;7.30;99.90;;;;;;5091753;28;20184;-41
2021/05/02 06:02:04;;;;;;;6.63;4.50;;;7.40;99.90;;;;;;5092747;28;20169;-41
2021/05/02 06:04:30;;;;;;;9.48;4.28;;;7.50;99.90;;;;;;5092710;28;20212;-41
2021/05/02 06:06:56;;;;;;;11.32;4.20;;;7.60;99.90;;;;;;5092250;28;20165;-41
2021/05/02 06:09:22;;;;;;;8.35;4.30;;;7.70;99.90;;;;;;5090513;28;20193;-41
2021/05/02 06:11:50;;;;;;;7.80;4.65;;;7.90;99.90;;;;;;5084048;28;20194;-40
2021/05/02 06:14:16;;;;;;;6.07;4.15;;;8.00;99.90;;;;;;5084858;28;20637;-40
2021/05/02 06:16:42;;;;;;;6.95;4.55;;;8.20;99.90;;;;;;5092094;28;20180;-40
2021/05/02 06:19:08;;;;;;;7.07;4.15;;;8.30;99.90;;;;;;5091238;28;20215;-40
2021/05/02 06:21:34;;;;;;;6.90;4.30;;;8.60;99.90;;;;;;5092695;28;20141;-40
2021/05/02 06:24:00;;;;;;;7.60;4.72;;;8.70;99.90;;;;;;5092372;28;20395;-39
2021/05/02 06:26:28;;;;;;;8.30;4.82;;;8.90;99.90;;;;;;5092309;28;20212;-39
2021/05/02 06:28:54;;;;;;;8.10;4.75;;;9.00;99.90;;;;;;5092482;28;20703;-40
2021/05/02 06:31:20;;;;;;;10.15;5.05;;;9.20;99.90;;;;;;5092022;28;20192;-40
2021/05/02 06:33:47;;;;;;;10.05;5.38;;;9.30;99.90;;;;;;5091948;28;20181;-40
2021/05/02 06:36:13;;;;;;;7.88;4.50;;;9.50;99.90;;;;;;5090564;28;20189;-40
2021/05/02 06:38:39;;;;;;;10.25;4.75;;;9.60;99.90;;;;;;5092532;28;20533;-39
2021/05/02 06:41:06;;;;;;;10.90;4.95;;;9.80;99.90;;;;;;5090699;28;20195;-41
2021/05/02 06:43:32;;;;;;;7.45;4.57;;;9.90;99.90;;;;;;5090806;28;20180;-40
2021/05/02 06:45:58;;;;;;;8.15;5.32;;;10.10;99.90;;;;;;5091628;28;20220;-41
2021/05/02 06:48:24;;;;;;;8.40;4.88;;;10.30;99.90;;;;;;5091732;28;20168;-39
2021/05/02 06:50:51;;;;;;;7.07;4.90;;;10.50;99.90;;;;;;5092398;28;20529;-39
2021/05/02 06:53:17;;;;;;;10.10;5.53;;;10.60;99.90;;;;;;5090082;28;20165;-40
2021/05/02 06:55:43;;;;;;;8.20;4.78;;;10.80;99.90;;;;;;5091421;28;20181;-40
2021/05/02 06:58:10;;;;;;;8.80;5.28;;;10.90;99.90;;;;;;5092038;28;20626;-39
2021/05/02 07:00:37;;;;;;;10.13;5.22;;;11.00;99.90;;;;;;5092176;28;20177;-41
2021/05/02 07:03:05;;;;;;;10.35;5.63;;;11.20;99.90;;;;;;5090632;28;20185;-39
2021/05/02 07:05:32;;;;;;;7.40;5.00;;;11.30;99.90;;;;;;5090463;28;20564;-39
2021/05/02 07:07:58;;;;;;;8.48;5.38;;;11.40;99.90;;;;;;5093195;28;20616;-40
2021/05/02 07:10:25;;;;;;;8.85;6.45;;;11.50;99.60;;;;;;5095098;28;20637;-40
2021/05/02 07:12:51;;;;;;;8.05;6.13;;;11.60;98.90;;;;;;5096021;28;20173;-39
2021/05/02 07:15:17;;;;;;;12.88;5.28;;;11.70;97.90;;;;;;5095920;28;20180;-40
2021/05/02 07:17:43;;;;;;;8.68;5.25;;;11.80;98.40;;;;;;5095700;28;20191;-40
2021/05/02 07:20:12;;;;;;;10.68;4.95;;;12.00;97.00;;;;;;5095958;28;20521;-40
2021/05/02 07:22:38;;;;;;;10.10;5.90;;;12.10;95.90;;;;;;5095949;28;20522;-40
2021/05/02 07:25:05;;;;;;;6.05;4.57;;;11.90;95.50;;;;;;5094788;28;20217;-40
2021/05/02 07:27:31;;;;;;;8.25;4.72;;;12.00;95.00;;;;;;5094557;28;20177;-40
2021/05/02 07:29:57;;;;;;;9.93;5.22;;;12.10;93.90;;;;;;5095144;28;20177;-40
2021/05/02 07:32:23;;;;;;;10.60;4.97;;;12.20;95.10;;;;;;5095117;28;20178;-41
2021/05/02 07:34:50;;;;;;;6.93;5.10;;;12.00;95.30;;;;;;5095603;28;20205;-40
2021/05/02 07:37:16;;;;;;;10.30;4.57;;;11.90;96.70;;;;;;5095564;28;20177;-40
2021/05/02 07:39:42;;;;;;;8.82;3.83;;;12.10;97.40;;;;;;5095370;28;20180;-39
2021/05/02 07:42:08;;;;;;;10.95;5.30;;;12.20;94.60;;;;;;5077747;28;20187;-39
2021/05/02 07:44:34;;;;;;;8.20;4.75;;;12.10;96.00;;;;;;5095310;28;20660;-40
2021/05/02 07:47:01;;;;;;;9.00;4.32;;;12.10;95.50;;;;;;5094879;28;20202;-40
2021/05/02 07:49:27;;;;;;;7.28;4.85;;;12.10;94.00;;;;;;5094421;28;20524;-40
2021/05/02 07:51:53;;;;;;;7.75;4.40;;;12.20;94.40;;;;;;5093501;28;20185;-39
2021/05/02 07:54:19;;;;;;;8.32;3.83;;;12.50;94.10;;;;;;5093748;28;20224;-40
2021/05/02 07:56:45;;;;;;;6.72;4.22;;;13.00;93.20;;;;;;5094895;28;20174;-40
2021/05/02 07:59:11;;;;;;;8.88;4.63;;;13.40;93.90;;;;;;5092251;28;20180;-40
2021/05/02 08:01:37;;;;;;;10.52;4.68;;;13.70;93.20;;;;;;5094252;28;20653;-40
2021/05/02 08:04:03;;;;;;;8.88;4.40;;;13.70;92.00;;;;;;5094502;28;20181;-40
2021/05/02 08:06:30;;;;;;;5.60;4.20;;;14.10;92.10;;;;;;5093949;28;20220;-39
2021/05/02 08:08:56;;;;;;;6.97;4.53;;;14.50;92.00;;;;;;5094896;28;20185;-41
2021/05/02 08:11:22;;;;;;;12.73;5.10;;;14.70;88.90;;;;;;5090836;28;20185;-41
2021/05/02 08:13:48;;;;;;;8.88;4.57;;;14.10;87.80;;;;;;5093659;28;20184;-40
2021/05/02 08:16:16;;;;;;;6.60;4.72;;;14.60;90.60;;;;;;5088978;28;20197;-40
2021/05/02 08:18:42;;;;;;;5.78;4.45;;;15.20;86.80;;;;;;5093086;28;20518;-40
2021/05/02 08:21:10;;;;;;;7.32;4.30;;;15.80;85.60;;;;;;5096023;28;20181;-40
2021/05/02 08:23:36;;;;;;;5.78;4.35;;;15.50;84.20;;;;;;5094089;28;20177;-41
2021/05/02 08:26:03;;;;;;;6.38;4.45;;;16.00;82.70;;;;;;5093447;28;20568;-40
2021/05/02 08:28:29;;;;;;;6.90;4.53;;;16.20;78.40;;;;;;5085311;28;20209;-40
2021/05/02 08:30:56;;;;;;;4.85;3.33;;;16.50;78.50;;;;;;5092463;28;20173;-40
2021/05/02 08:33:22;;;;;;;5.65;3.17;;;17.70;75.20;;;;;;5092858;28;20525;-41
2021/05/02 08:35:49;;;;;;;6.45;3.28;;;18.40;71.20;;;;;;5090517;28;20217;-41
2021/05/02 08:38:15;;;;;;;6.15;3.35;;;19.20;66.70;;;;;;5093638;28;20173;-42
2021/05/02 08:40:41;;;;;;;3.78;2.80;;;19.30;64.80;;;;;;5093471;28;20196;-42
2021/05/02 08:43:08;;;;;;;5.55;2.95;;;19.60;60.80;;;;;;5094748;28;20614;-41
2021/05/02 08:45:34;;;;;;;5.30;2.85;;;20.10;57.00;;;;;;5093727;28;20209;-42
2021/05/02 08:48:00;;;;;;;8.95;2.58;;;20.10;58.50;;;;;;5093224;28;20188;-41
2021/05/02 08:50:27;;;;;;;3.88;2.40;;;20.80;57.30;;;;;;5093382;28;20636;-41
2021/05/02 08:52:53;;;;;;;4.68;2.58;;;20.90;55.80;;;;;;5093297;28;20180;-43
2021/05/02 08:55:19;;;;;;;3.63;2.40;;;21.30;53.70;;;;;;5092850;28;20177;-40
2021/05/02 08:57:45;;;;;;;3.92;2.45;;;21.20;49.80;;;;;;5091839;28;20188;-41
2021/05/02 09:00:11;;;;;;;4.95;2.45;;;20.40;50.20;;;;;;5090607;28;20185;-41
2021/05/02 09:02:37;;;;;;;3.47;1.98;;;19.80;48.90;;;;;;5086101;28;20180;-41
2021/05/02 09:05:05;;;;;;;4.30;2.55;;;18.90;49.70;;;;;;5093269;28;20198;-41
2021/05/02 09:07:42;;;;;;;5.47;2.47;;;18.60;49.50;;;;;;5091740;28;20205;-41
2021/05/02 09:10:11;;;;;;;6.25;2.92;;;18.20;50.30;;;;;;5093289;28;20543;-41
2021/05/02 09:12:38;;;;;;;8.00;3.10;;;18.00;51.30;;;;;;5092388;28;20640;-40
2021/05/02 09:15:25;;;;;;;16.38;3.17;;;17.60;52.40;;;;;;5093287;28;20181;-40
2021/05/02 09:17:54;;;;;;;7.05;2.80;;;16.80;55.40;;;;;;5092702;28;20243;-41
2021/05/02 09:20:43;;;;;;;5.32;2.20;;;16.40;55.90;;;;;;5092966;28;20656;-41
2021/05/02 09:23:09;;;;;;;4.20;2.67;;;17.40;53.80;;;;;;5098673;28;20193;-41
2021/05/02 09:25:52;;;;;;;5.68;2.40;;;19.10;52.00;;;;;;5097879;28;20200;-41
2021/05/02 09:28:55;;;;;;;6.88;2.70;;;20.30;49.60;;;;;;5097770;28;20707;-41
2021/05/02 09:31:26;;;;;;;3.67;2.47;;;18.80;48.20;;;;;;5070322;28;20186;-42
2021/05/02 09:33:53;;;;;;;5.82;3.05;;;19.90;49.80;;;;;;5081593;28;20186;-42
2021/05/02 09:36:20;;;;;;;5.00;2.85;;;20.60;49.00;;;;;;5091510;28;20169;-41
2021/05/02 09:38:46;;;;;;;3.83;2.53;;;20.80;46.90;;;;;;5091670;28;20202;-41
2021/05/02 09:41:13;;;;;;;5.93;3.58;;;21.60;49.40;;;;;;5092422;28;20178;-42
2021/05/02 09:43:40;;;;;;;5.40;2.90;;;22.90;47.60;;;;;;5092501;28;20180;-41
2021/05/02 09:46:36;;;;;;;3.53;2.55;;;23.60;45.90;;;;;;5092871;28;20703;-41
2021/05/02 09:49:08;;;;;;;7.43;3.17;;;23.70;44.80;;;;;;5092382;28;20176;-47
2021/05/02 09:51:45;;;;;;;4.07;2.75;;;23.00;43.60;;;;;;5092266;28;20187;-41
2021/05/02 09:54:13;;;;;;;6.05;3.45;;;21.70;44.80;;;;;;5091585;28;20180;-41
2021/05/02 09:56:43;;;;;;;4.18;3.08;;;21.40;46.70;;;;;;5091907;28;20173;-41
2021/05/02 09:59:25;;;;;;;5.97;3.42;;;19.90;45.00;;;;;;5091857;28;20189;-41
2021/05/02 10:02:10;;;;;;;5.30;3.38;;;18.50;47.80;;;;;;5090786;28;20178;-41
2021/05/02 10:04:43;;;;;;;6.95;3.20;;;19.30;49.30;;;;;;5090947;28;20177;-41
2021/05/02 10:07:10;;;;;;;6.78;3.28;;;21.20;48.70;;;;;;5091877;28;20212;-41
2021/05/02 10:09:37;;;;;;;4.47;3.10;;;20.30;44.70;;;;;;5090638;28;20197;-41
2021/05/02 10:12:04;;;;;;;6.72;3.83;;;18.60;47.90;;;;;;5091472;28;20173;-41
2021/05/02 10:14:34;;;;;;;5.10;3.13;;;17.30;48.30;;;;;;5089536;28;20181;-41
2021/05/02 10:17:01;;;;;;;6.38;3.90;;;16.40;50.70;;;;;;5090496;28;20201;-43
2021/05/02 10:19:30;;;;;;;5.63;4.05;;;14.90;54.00;;;;;;5091338;28;20532;-41
2021/05/02 10:21:56;;;;;;;6.55;3.55;;;14.50;56.90;;;;;;5091313;28;20546;-40
2021/05/02 10:24:23;;;;;;;8.88;4.20;;;14.70;57.90;;;;;;5090219;28;20536;-40
2021/05/02 10:26:53;;;;;;;7.10;4.65;;;14.80;58.90;;;;;;5092021;28;20185;-41
2021/05/02 10:29:27;;;;;;;6.30;3.80;;;14.30;59.50;;;;;;5090095;28;20164;-41
2021/05/02 10:32:32;;;;;;;5.90;3.92;;;14.20;61.10;;;;;;5091719;28;20177;-41
2021/05/02 10:35:08;;;;;;;8.70;3.70;;;13.90;61.80;;;;;;5078767;28;20715;-41
2021/05/02 10:37:37;;;;;;;8.63;4.55;;;13.70;63.00;;;;;;5089093;28;20197;-41
2021/05/02 10:40:23;;;;;;;6.72;3.58;;;13.50;62.50;;;;;;5091727;28;20546;-41
2021/05/02 10:42:53;;;;;;;5.40;3.70;;;13.30;65.50;;;;;;5083272;28;20625;-40
2021/05/02 10:45:28;;;;;;;5.78;3.63;;;13.30;66.10;;;;;;5091258;28;20310;-41
2021/05/02 10:47:54;;;;;;;8.40;3.70;;;13.20;68.20;;;;;;5091955;28;20629;-42
2021/05/02 10:50:25;;;;;;;8.90;3.50;;;13.40;69.00;;;;;;5091284;28;20182;-41
2021/05/02 10:53:05;;;;;;;12.48;3.90;;;13.40;68.20;;;;;;5090995;28;20177;-41
2021/05/02 10:56:02;;;;;;;8.25;4.03;;;13.60;69.80;;;;;;5089408;28;20193;-40
2021/05/02 10:58:30;;;;;;;6.90;3.60;;;13.70;71.60;;;;;;5085308;28;20185;-41
2021/05/02 11:01:08;;;;;;;6.15;3.67;;;13.70;80.90;;;;;;5097765;28;20180;-40
2021/05/02 11:03:40;;;;;;;12.65;4.57;;;13.70;84.50;;;;;;5098391;28;20161;-40
2021/05/02 11:06:12;;;;;;;8.57;3.95;;;13.50;90.20;;;;;;5097350;28;20179;-41
2021/05/02 11:08:45;;;;;;;5.53;3.80;;;13.40;97.80;;;;;;5096062;28;20199;-41
2021/05/02 11:11:33;;;;;;;9.95;4.40;;;13.00;95.70;;;;;;5093857;28;20181;-39
2021/05/02 11:14:08;;;;;;;7.40;4.57;;;12.80;95.30;;;;;;5090769;28;20193;-41
2021/05/02 11:16:50;;;;;;;9.55;5.07;;;12.70;95.20;;;;;;5090260;28;20209;-41
2021/05/02 11:19:20;;;;;;;6.55;4.07;;;12.30;95.00;;;;;;5083310;28;20165;-40
2021/05/02 11:21:49;;;;;;;9.23;5.13;;;12.20;96.10;;;;;;5091492;28;20178;-41
2021/05/02 11:24:22;;;;;;;9.23;4.78;;;11.70;96.90;;;;;;5090846;28;20170;-40
2021/05/02 11:26:58;;;;;;;10.32;4.75;;;11.20;99.90;;;;;;5091498;28;20165;-41
2021/05/02 11:29:49;;;;;;;8.55;4.70;;;11.10;99.90;;;;;;5098532;28;20168;-41
2021/05/02 11:32:27;;;;;;;7.40;4.60;;;11.30;99.90;;;;;;5097761;28;20532;-41
2021/05/02 11:34:56;;;;;;;12.00;5.10;;;11.70;99.90;;;;;;5095675;28;20213;-40
2021/05/02 11:37:56;;;;;;;7.18;4.53;;;12.10;99.90;;;;;;5093088;28;20217;-41
2021/05/02 11:40:25;;;;;;;7.95;5.03;;;12.20;98.20;;;;;;5076984;28;20310;-41
2021/05/02 11:42:54;;;;;;;7.95;4.57;;;12.30;99.50;;;;;;5091203;28;20196;-41
2021/05/02 11:45:24;;;;;;;9.80;5.18;;;12.60;98.00;;;;;;5090601;28;20645;-42
2021/05/02 11:47:50;;;;;;;6.55;4.78;;;13.10;97.70;;;;;;5090061;28;20521;-42
2021/05/02 11:50:16;;;;;;;5.18;4.13;;;13.50;97.30;;;;;;5090295;28;20187;-42
2021/05/02 11:52:46;;;;;;;7.32;4.47;;;13.70;94.40;;;;;;5097371;28;20184;-42
2021/05/02 11:55:28;;;;;;;6.97;4.18;;;14.20;94.90;;;;;;5092821;28;20194;-41
2021/05/02 11:57:55;;;;;;;5.57;4.00;;;14.40;94.10;;;;;;5094770;28;20181;-40
2021/05/02 12:00:47;;;;;;;7.22;3.72;;;14.10;92.00;;;;;;5093409;28;20173;-40
2021/05/02 12:03:17;;;;;;;6.75;3.30;;;14.10;90.20;;;;;;5088640;28;20192;-41
2021/05/02 12:05:51;;;;;;;5.00;3.45;;;13.70;88.90;;;;;;5093246;28;20165;-41
2021/05/02 12:08:20;;;;;;;5.70;3.80;;;14.20;90.90;;;;;;5093548;28;20202;-40
2021/05/02 12:10:51;;;;;;;7.68;3.53;;;14.50;87.20;;;;;;5094138;28;20637;-41
2021/05/02 12:13:33;;;;;;;4.53;3.80;;;14.50;86.00;;;;;;5092571;28;20184;-41
2021/05/02 12:16:05;;;;;;;9.13;4.30;;;15.40;90.00;;;;;;5093894;28;20208;-41
2021/05/02 12:18:51;;;;;;;5.32;3.97;;;15.10;87.20;;;;;;5094508;28;20170;-40
2021/05/02 12:21:25;;;;;;;10.10;4.40;;;14.60;85.00;;;;;;5094767;28;20166;-41
2021/05/02 12:23:52;;;;;;;6.68;3.80;;;14.60;88.40;;;;;;5093452;28;20184;-41
2021/05/02 12:26:19;;;;;;;9.48;4.22;;;14.40;87.00;;;;;;5094722;28;20192;-41
2021/05/02 12:28:45;;;;;;;7.15;3.75;;;14.30;88.80;;;;;;5094884;28;20188;-41
2021/05/02 12:31:13;;;;;;;14.93;3.63;;;15.00;85.80;;;;;;5097140;28;20188;-41
2021/05/02 12:33:40;;;;;;;12.57;3.95;;;15.00;82.50;;;;;;5093431;28;20169;-41
2021/05/02 12:36:08;;;;;;;5.60;3.28;;;15.20;79.40;;;;;;5094632;28;20763;-40
2021/05/02 12:38:34;;;;;;;18.70;3.65;;;14.80;81.10;;;;;;5094505;28;20177;-40
2021/05/02 12:41:00;;;;;;;6.03;3.97;;;15.30;82.70;;;;;;5093611;28;20193;-41
2021/05/02 12:43:28;;;;;;;12.48;3.25;;;16.20;79.70;;;;;;5093784;28;20169;-40
2021/05/02 12:45:54;;;;;;;8.10;4.22;;;16.20;79.50;;;;;;5091818;28;20235;-41
2021/05/02 12:48:24;;;;;;;4.95;3.30;;;16.30;79.20;;;;;;5092990;28;20196;-41
2021/05/02 12:50:52;;;;;;;5.22;3.35;;;16.30;76.50;;;;;;5093782;28;20193;-42
2021/05/02 12:53:18;;;;;;;4.13;3.03;;;16.30;75.80;;;;;;5092012;28;20180;-40
2021/05/02 12:55:54;;;;;;;7.53;3.47;;;15.80;73.00;;;;;;5093536;28;20182;-41